หน้าหลัก
METAR-TAF:

METAR-TAF

ท่าอากาศยาน :

Umiujaq, ควิเบก, แคนาดา

ละติจูด: 56-32N, ลองจิจูด: 076-31W, ความสูง: 71 ม.

การสังเกตสภาพอากาศปัจจุบัน

รายงานได้ทำขึ้นเมื่อ 11 ชั่วโมงและ 36 นาทีที่แล้ว ณ เวลา 21:00 UTC
ลม 6 นอตจากใต้
อุณหภูมิ 2°C
ความชื้น 100%
ความกดอากาศ 1000 hPa
ทัศนวิสัย: 9.7 กม.
มีเมฆมาก มืดครึ้มที่ความสูง 400 ฟุต
การโปรยปรายในบริเวณใกล้เคียง

METAR: CYMU 192100Z 17006KT 6SM VCSH OVC004 02/02 A2954 RMK SF8 LAST STFD OBS/NEXT 201200Z SLP009

เวลา: 04:36 (08:36 UTC)


TAF: หายไป

สังเกตการณ์สภาพอากาศและพยากรณ์อากาศของสนามบินมากกว่า 4000 แห่ง (รายงาน METAR และ TAF).

สถานีที่ดูได้จะแสดงไว้ด้วยจุดสีเหลืองและสีแดงบนแผนที่.

เลื่อนเมาส์ไปเหนือจุดเพื่อดูชื่อสถานี.

แล้วคลิกเพื่อดูสังเกตการณ์และการพยากรณ์สภาพอากาศ.

ในการเปลี่ยนแผนที่: คลิกที่ปุ่มสีเขียวที่มีกากบาทสีดำเพื่อซูมเข้า; ที่ปุ่มสีเขียวที่มีขีดเพื่อซูมออก; หรือที่ลูกศรสีเขียวเพื่อไปยังแผนที่ที่อยู่ติดกัน.


METAR-TAF: